Time;durP1;ratioP1;P1;durP2;ratioP2;P2;SDS_P1;SDS_P2;PMS_P1;PMS_P2;Temp;Humidity;BMP_temperature;BMP_pressure;BME280_temperature;BME280_humidity;BME280_pressure;Samples;Min_cycle;Max_cycle;Signal;HPM_P1;HPM_P2
2023/04/13 00:03:15;;;;;;;23.3;11.5;;;;;;;2.8;85.5;97540;;;;
2023/04/13 00:13:15;;;;;;;16.9;9.8;;;;;;;2.6;85.4;97520;;;;
2023/04/13 00:24:16;;;;;;;16.9;9.8;;;;;;;2.5;84.9;97520;;;;
2023/04/13 00:35:15;;;;;;;19.7;10;;;;;;;2.4;84.8;97520;;;;
2023/04/13 00:45:15;;;;;;;19.7;10;;;;;;;2.4;84.9;97520;;;;
2023/04/13 00:55:20;;;;;;;19.7;10;;;;;;;2.3;84.9;97520;;;;
2023/04/13 01:05:16;;;;;;;22.4;11.7;;;;;;;2.4;85;97530;;;;
2023/04/13 01:15:15;;;;;;;22.4;11.7;;;;;;;2.4;85.4;97530;;;;
2023/04/13 01:26:16;;;;;;;22.4;11.7;;;;;;;2.4;86.1;97540;;;;
2023/04/13 01:36:16;;;;;;;21.7;13;;;;;;;2.4;86.4;97550;;;;
2023/04/13 01:46:15;;;;;;;21.7;13;;;;;;;2.4;86.4;97540;;;;
2023/04/13 01:57:16;;;;;;;21.7;13;;;;;;;2.3;86.2;97540;;;;
2023/04/13 02:08:17;;;;;;;18.6;11.3;;;;;;;2.2;86.1;97530;;;;
2023/04/13 02:18:16;;;;;;;18.6;11.3;;;;;;;2.1;86.6;97540;;;;
2023/04/13 02:28:16;;;;;;;18.6;11.3;;;;;;;2;86.5;97540;;;;
2023/04/13 02:39:15;;;;;;;20.4;10.9;;;;;;;2;86.6;97540;;;;
2023/04/13 02:50:16;;;;;;;20.4;10.9;;;;;;;2.1;86.5;97550;;;;
2023/04/13 03:00:15;;;;;;;20.4;10.9;;;;;;;2.1;86.6;97550;;;;
2023/04/13 03:11:15;;;;;;;18.2;12.2;;;;;;;2.2;86.7;97540;;;;
2023/04/13 03:21:15;;;;;;;18.2;12.2;;;;;;;2.3;87.1;97530;;;;
2023/04/13 03:31:16;;;;;;;18.2;12.2;;;;;;;2.5;87.3;97530;;;;
2023/04/13 03:42:15;;;;;;;18.2;11.6;;;;;;;2.7;87.8;97530;;;;
2023/04/13 03:53:15;;;;;;;18.2;11.6;;;;;;;2.9;87.9;97530;;;;
2023/04/13 04:03:16;;;;;;;18.2;11.6;;;;;;;3.2;88;97540;;;;
2023/04/13 04:14:15;;;;;;;19.1;10.4;;;;;;;3.3;87.7;97540;;;;
2023/04/13 04:25:20;;;;;;;19.1;10.4;;;;;;;3.6;87.6;97540;;;;
2023/04/13 04:36:15;;;;;;;21.6;11.3;;;;;;;3.9;87.4;97540;;;;
2023/04/13 04:46:15;;;;;;;21.6;11.3;;;;;;;4.1;87.3;97530;;;;
2023/04/13 04:57:15;;;;;;;21.6;11.3;;;;;;;4.6;86.8;97530;;;;
2023/04/13 05:07:17;;;;;;;24.5;13.9;;;;;;;4.9;86.2;97530;;;;
2023/04/13 05:18:16;;;;;;;24.5;13.9;;;;;;;5.3;85.7;97540;;;;
2023/04/13 05:28:16;;;;;;;24.5;13.9;;;;;;;5.6;85.3;97540;;;;
2023/04/13 05:39:15;;;;;;;24.4;16.9;;;;;;;6.1;84.9;97540;;;;
2023/04/13 05:50:15;;;;;;;24.4;16.9;;;;;;;6.5;83.3;97540;;;;
2023/04/13 06:01:17;;;;;;;24.4;16.9;;;;;;;6.8;82.1;97550;;;;
2023/04/13 06:11:16;;;;;;;23.6;18.6;;;;;;;7.1;81.6;97560;;;;
2023/04/13 06:21:15;;;;;;;23.6;18.6;;;;;;;7.6;81.4;97550;;;;
2023/04/13 06:32:15;;;;;;;23.6;18.6;;;;;;;8.6;80.1;97550;;;;
2023/04/13 06:43:15;;;;;;;29.9;22.6;;;;;;;9.4;77.3;97560;;;;
2023/04/13 06:53:15;;;;;;;29.9;22.6;;;;;;;9.8;77.1;97560;;;;
2023/04/13 07:03:16;;;;;;;29.9;22.6;;;;;;;10.4;75.3;97560;;;;
2023/04/13 07:14:15;;;;;;;32.6;27.4;;;;;;;10.8;74.1;97560;;;;
2023/04/13 07:24:15;;;;;;;32.6;27.4;;;;;;;11.6;71.9;97560;;;;
2023/04/13 07:34:15;;;;;;;25.6;21.6;;;;;;;12;70.8;97560;;;;
2023/04/13 07:44:16;;;;;;;25.6;21.6;;;;;;;13;69.5;97550;;;;
2023/04/13 07:55:15;;;;;;;25.6;21.6;;;;;;;13.5;67.5;97560;;;;
2023/04/13 08:05:15;;;;;;;25.7;21.7;;;;;;;14.3;65.3;97560;;;;
2023/04/13 08:15:15;;;;;;;25.7;21.7;;;;;;;14.4;63.9;97560;;;;
2023/04/13 08:26:15;;;;;;;25.7;21.7;;;;;;;15.1;61.7;97560;;;;
2023/04/13 08:36:16;;;;;;;23.9;17.6;;;;;;;15.6;61.7;97550;;;;
2023/04/13 08:46:18;;;;;;;23.9;17.6;;;;;;;16;57.3;97560;;;;
2023/04/13 08:56:15;;;;;;;23.9;17.6;;;;;;;16.5;55.7;97550;;;;
2023/04/13 09:07:15;;;;;;;18.5;12;;;;;;;17;55.6;97550;;;;
2023/04/13 09:17:15;;;;;;;18.5;12;;;;;;;17;52.9;97540;;;;
2023/04/13 09:28:15;;;;;;;18.5;12;;;;;;;16.7;50.5;97540;;;;
2023/04/13 09:39:16;;;;;;;8.2;5.8;;;;;;;17.1;48.6;97530;;;;
2023/04/13 09:50:16;;;;;;;8.2;5.8;;;;;;;17.6;46.5;97540;;;;
2023/04/13 10:00:19;;;;;;;8.2;5.8;;;;;;;18.4;46.3;97540;;;;
2023/04/13 10:11:15;;;;;;;7.9;4;;;;;;;18.7;44.2;97530;;;;
2023/04/13 10:22:15;;;;;;;7.9;4;;;;;;;18.7;41.8;97530;;;;
2023/04/13 10:32:16;;;;;;;7.9;4;;;;;;;19.3;43.6;97520;;;;
2023/04/13 10:42:16;;;;;;;9.3;5.1;;;;;;;19.1;43.6;97510;;;;
2023/04/13 10:52:15;;;;;;;9.3;5.1;;;;;;;19.4;41.1;97500;;;;
2023/04/13 11:02:16;;;;;;;9.3;5.1;;;;;;;19.1;42.9;97500;;;;
2023/04/13 11:13:15;;;;;;;8.1;4.6;;;;;;;18.9;43.1;97490;;;;
2023/04/13 11:24:16;;;;;;;8.1;4.6;;;;;;;18.4;45;97500;;;;
2023/04/13 11:34:15;;;;;;;6.4;3.3;;;;;;;18.4;43.2;97500;;;;
2023/04/13 11:45:16;;;;;;;6.4;3.3;;;;;;;18.9;44.7;97490;;;;
2023/04/13 11:56:15;;;;;;;6.4;3.3;;;;;;;19.1;43.3;97460;;;;
2023/04/13 12:06:16;;;;;;;7.3;2.9;;;;;;;18.8;44.2;97460;;;;
2023/04/13 12:16:16;;;;;;;7.3;2.9;;;;;;;19;44.6;97440;;;;
2023/04/13 12:27:16;;;;;;;7.3;2.9;;;;;;;19;41.8;97460;;;;
2023/04/13 12:37:15;;;;;;;6.1;3.1;;;;;;;18.8;44.9;97450;;;;
2023/04/13 12:47:15;;;;;;;6.1;3.1;;;;;;;18.8;42.3;97450;;;;
2023/04/13 12:57:16;;;;;;;6.1;3.1;;;;;;;18.6;43.9;97440;;;;
2023/04/13 13:07:16;;;;;;;7.2;3.9;;;;;;;18.4;43.1;97440;;;;
2023/04/13 13:18:15;;;;;;;7.2;3.9;;;;;;;18.5;43.7;97440;;;;
2023/04/13 13:28:15;;;;;;;7.2;3.9;;;;;;;18.4;42.6;97450;;;;
2023/04/13 13:39:16;;;;;;;6.2;3.3;;;;;;;18.2;43.3;97450;;;;
2023/04/13 13:49:16;;;;;;;6.2;3.3;;;;;;;17.9;44.5;97460;;;;
2023/04/13 14:00:16;;;;;;;6.2;3.3;;;;;;;17.6;46;97460;;;;
2023/04/13 14:11:16;;;;;;;6.5;3.4;;;;;;;17.2;45.3;97470;;;;
2023/04/13 14:21:20;;;;;;;6.5;3.4;;;;;;;17;47.2;97470;;;;
2023/04/13 14:32:16;;;;;;;6.5;3.4;;;;;;;16.6;47.6;97480;;;;
2023/04/13 14:43:16;;;;;;;6.3;2.9;;;;;;;16.5;48.4;97490;;;;
2023/04/13 14:53:16;;;;;;;6.3;2.9;;;;;;;16.2;52.7;97520;;;;
2023/04/13 15:03:16;;;;;;;6.3;2.9;;;;;;;15.1;56.9;97530;;;;
2023/04/13 15:13:16;;;;;;;16.5;5.6;;;;;;;14.6;58.8;97540;;;;
2023/04/13 15:23:16;;;;;;;16.5;5.6;;;;;;;14.1;60.3;97570;;;;
2023/04/13 15:33:16;;;;;;;16.5;5.6;;;;;;;13.7;61.4;97580;;;;
2023/04/13 15:43:16;;;;;;;13.3;8.5;;;;;;;13.4;63.5;97580;;;;
2023/04/13 15:53:16;;;;;;;13.3;8.5;;;;;;;13.2;65.5;97580;;;;
2023/04/13 16:03:16;;;;;;;13.3;8.5;;;;;;;13;67.5;97590;;;;
2023/04/13 16:14:16;;;;;;;15.9;8.9;;;;;;;12.7;70.6;97600;;;;
2023/04/13 16:24:16;;;;;;;15.9;8.9;;;;;;;12.5;72.2;97610;;;;
2023/04/13 16:34:16;;;;;;;14.7;10.1;;;;;;;12.3;74.2;97620;;;;
2023/04/13 16:45:16;;;;;;;14.7;10.1;;;;;;;12.2;74.9;97630;;;;
2023/04/13 16:56:18;;;;;;;14.7;10.1;;;;;;;12;75.5;97640;;;;
2023/04/13 17:06:16;;;;;;;16.8;11.3;;;;;;;12;75.5;97660;;;;
2023/04/13 17:17:16;;;;;;;16.8;11.3;;;;;;;11.9;75.8;97670;;;;
2023/04/13 17:27:16;;;;;;;16.8;11.3;;;;;;;11.7;76.1;97680;;;;
2023/04/13 17:38:16;;;;;;;17.9;13.2;;;;;;;11.6;76.3;97690;;;;
2023/04/13 17:49:16;;;;;;;17.9;13.2;;;;;;;11.5;76.9;97700;;;;
2023/04/13 18:00:57;;;;;;;17.9;13.2;;;;;;;11.4;78;97720;;;;
2023/04/13 18:11:56;;;;;;;20.3;13.7;;;;;;;11.2;78.8;97740;;;;
2023/04/13 18:21:56;;;;;;;20.3;13.7;;;;;;;11;80.1;97750;;;;
2023/04/13 18:31:56;;;;;;;20.3;13.7;;;;;;;10.9;81;97750;;;;
2023/04/13 18:41:56;;;;;;;21;16.5;;;;;;;10.8;82.1;97760;;;;
2023/04/13 18:52:56;;;;;;;21;16.5;;;;;;;10.6;83.2;97760;;;;
2023/04/13 19:02:56;;;;;;;21;16.5;;;;;;;10.5;83.9;97770;;;;
2023/04/13 19:12:56;;;;;;;24.3;19.4;;;;;;;10.6;83.9;97770;;;;
2023/04/13 19:23:57;;;;;;;24.3;19.4;;;;;;;10.5;84.2;97780;;;;
2023/04/13 19:34:56;;;;;;;27.6;21.4;;;;;;;10.5;84.1;97780;;;;
2023/04/13 19:45:56;;;;;;;27.6;21.4;;;;;;;10.4;84.3;97780;;;;
2023/04/13 19:55:56;;;;;;;27.6;21.4;;;;;;;10.4;84.4;97780;;;;
2023/04/13 20:05:57;;;;;;;26.1;20.8;;;;;;;10.3;84.2;97780;;;;
2023/04/13 20:16:56;;;;;;;26.1;20.8;;;;;;;10.3;84;97770;;;;
2023/04/13 20:27:56;;;;;;;26.1;20.8;;;;;;;10.2;84.2;97770;;;;
2023/04/13 20:37:58;;;;;;;25.7;19.6;;;;;;;10.1;84.4;97770;;;;
2023/04/13 20:48:56;;;;;;;25.7;19.6;;;;;;;10.1;84.3;97770;;;;
2023/04/13 20:58:56;;;;;;;25.7;19.6;;;;;;;10;84.6;97770;;;;
2023/04/13 21:08:57;;;;;;;24.8;18.8;;;;;;;10;84.7;97770;;;;
2023/04/13 21:19:56;;;;;;;24.8;18.8;;;;;;;10;85.3;97770;;;;
2023/04/13 21:29:56;;;;;;;24.8;18.8;;;;;;;9.9;85.7;97770;;;;
2023/04/13 21:39:56;;;;;;;24.4;19.6;;;;;;;9.8;86;97770;;;;
2023/04/13 21:50:56;;;;;;;24.4;19.6;;;;;;;9.8;86.3;97760;;;;
2023/04/13 22:00:56;;;;;;;24.4;19.6;;;;;;;9.9;86.1;97760;;;;
2023/04/13 22:10:56;;;;;;;23.1;19.7;;;;;;;9.9;86.1;97760;;;;
2023/04/13 22:20:56;;;;;;;23.1;19.7;;;;;;;9.7;86.2;97760;;;;
2023/04/13 22:30:56;;;;;;;23.1;19.7;;;;;;;9.7;86.3;97760;;;;
2023/04/13 22:41:56;;;;;;;27.5;19.6;;;;;;;9.7;86.4;97760;;;;
2023/04/13 22:52:56;;;;;;;27.5;19.6;;;;;;;9.7;86.4;97740;;;;
2023/04/13 23:03:56;;;;;;;29.1;21.7;;;;;;;9.6;86.6;97740;;;;
2023/04/13 23:13:56;;;;;;;29.1;21.7;;;;;;;9.4;87.7;97740;;;;
2023/04/13 23:24:56;;;;;;;29.1;21.7;;;;;;;9.3;88.2;97730;;;;
2023/04/13 23:34:56;;;;;;;29.6;22.9;;;;;;;9.4;88.4;97740;;;;
2023/04/13 23:45:57;;;;;;;29.6;22.9;;;;;;;9.5;88.1;97710;;;;
2023/04/13 23:55:56;;;;;;;29.6;22.9;;;;;;;9.5;87.9;97710;;;;
